aviador You're here:

KCQX Decoded Metar

CHATHAM in MA, USA
Report Time2018-05-21 15:52:00
UTC Time2018-05-21 16:44:15
Flight Rules vfr VFR
Wind020° at 05 kt
W.Decomp.*RWY 06: 4.6 kt HW 2 kt LCW
W.Rank020° ranks 20
Current wind is below 020° avg. (7.1)
Visibility9999 m
Phenomena:N/A
Clouds:N/A
Expected CloudBase > 5,200 ft AGL from Temp-Dew spread
CeilingNone
Temp20°C (ISA +5)
Dew Point07°C (43% RH)
AAT17.5°C
QNH1022 hPa
Density Alt495 ft
Elevation62 ft
Report Wrong Elevation
Raw Report
KCQX 211552Z AUTO 02005KT 10SM CLR 20/07 A3017 RMK AO2 SLP218
T02000067 TSNO=

Extra information for KCQX:More info

Metar Taf Metar & Taf Last 4 Metars F.Rules Stats Wind Profile Meteogram Temp Stats Airport Information Weather charts Add Link Nearby VenuesMetar ALERT Operation Metar Decoded Social comments

AIRNAV info for KCQX